sensor_id;sensor_type;location;lat;lon;timestamp;temperature;humidity
42031;DHT22;27709;52.036;5.906;2024-03-02T00:00:16;9.90;95.10
42031;DHT22;27709;52.036;5.906;2024-03-02T00:02:42;9.90;95.10
42031;DHT22;27709;52.036;5.906;2024-03-02T00:05:20;9.90;95.00
42031;DHT22;27709;52.036;5.906;2024-03-02T00:07:57;9.90;94.90
42031;DHT22;27709;52.036;5.906;2024-03-02T00:10:30;10.00;95.00
42031;DHT22;27709;52.036;5.906;2024-03-02T00:13:02;9.90;94.90
42031;DHT22;27709;52.036;5.906;2024-03-02T00:15:47;9.90;95.20
42031;DHT22;27709;52.036;5.906;2024-03-02T00:18:16;10.00;95.00
42031;DHT22;27709;52.036;5.906;2024-03-02T00:20:44;10.00;95.00
42031;DHT22;27709;52.036;5.906;2024-03-02T00:23:14;9.90;95.00
42031;DHT22;27709;52.036;5.906;2024-03-02T00:25:43;10.00;95.10
42031;DHT22;27709;52.036;5.906;2024-03-02T00:28:33;10.00;94.90
42031;DHT22;27709;52.036;5.906;2024-03-02T00:31:13;10.00;94.90
42031;DHT22;27709;52.036;5.906;2024-03-02T00:33:43;10.00;94.90
42031;DHT22;27709;52.036;5.906;2024-03-02T00:36:10;9.90;95.00
42031;DHT22;27709;52.036;5.906;2024-03-02T00:38:48;9.90;95.00
42031;DHT22;27709;52.036;5.906;2024-03-02T00:46:22;10.10;95.20
42031;DHT22;27709;52.036;5.906;2024-03-02T00:48:58;10.20;95.10
42031;DHT22;27709;52.036;5.906;2024-03-02T00:51:26;10.20;94.80
42031;DHT22;27709;52.036;5.906;2024-03-02T00:53:53;10.20;95.00
42031;DHT22;27709;52.036;5.906;2024-03-02T00:56:21;10.20;95.00
42031;DHT22;27709;52.036;5.906;2024-03-02T00:58:47;10.30;94.80
42031;DHT22;27709;52.036;5.906;2024-03-02T01:01:12;10.20;94.70
42031;DHT22;27709;52.036;5.906;2024-03-02T01:03:39;10.20;94.80
42031;DHT22;27709;52.036;5.906;2024-03-02T01:06:07;10.20;94.80
42031;DHT22;27709;52.036;5.906;2024-03-02T01:08:34;10.20;94.80
42031;DHT22;27709;52.036;5.906;2024-03-02T01:11:00;10.20;94.60
42031;DHT22;27709;52.036;5.906;2024-03-02T01:13:26;10.30;94.80
42031;DHT22;27709;52.036;5.906;2024-03-02T01:15:52;10.30;94.90
42031;DHT22;27709;52.036;5.906;2024-03-02T01:18:18;10.40;94.80
42031;DHT22;27709;52.036;5.906;2024-03-02T01:20:44;10.30;94.70
42031;DHT22;27709;52.036;5.906;2024-03-02T01:23:10;10.30;94.80
42031;DHT22;27709;52.036;5.906;2024-03-02T01:25:36;10.40;95.20
42031;DHT22;27709;52.036;5.906;2024-03-02T01:28:01;10.40;94.70
42031;DHT22;27709;52.036;5.906;2024-03-02T01:30:27;10.40;94.90
42031;DHT22;27709;52.036;5.906;2024-03-02T01:32:53;10.50;95.10
42031;DHT22;27709;52.036;5.906;2024-03-02T01:35:18;10.50;95.20
42031;DHT22;27709;52.036;5.906;2024-03-02T01:37:44;10.60;95.40
42031;DHT22;27709;52.036;5.906;2024-03-02T01:40:10;10.60;95.50
42031;DHT22;27709;52.036;5.906;2024-03-02T01:42:37;10.60;95.20
42031;DHT22;27709;52.036;5.906;2024-03-02T01:45:05;10.60;95.40
42031;DHT22;27709;52.036;5.906;2024-03-02T01:47:30;10.70;95.50
42031;DHT22;27709;52.036;5.906;2024-03-02T01:49:56;10.70;95.80
42031;DHT22;27709;52.036;5.906;2024-03-02T01:52:23;10.70;95.90
42031;DHT22;27709;52.036;5.906;2024-03-02T01:54:48;10.60;96.20
42031;DHT22;27709;52.036;5.906;2024-03-02T01:57:14;10.60;96.40
42031;DHT22;27709;52.036;5.906;2024-03-02T01:59:39;10.60;96.40
42031;DHT22;27709;52.036;5.906;2024-03-02T02:02:05;10.60;96.10
42031;DHT22;27709;52.036;5.906;2024-03-02T02:04:30;10.50;96.20
42031;DHT22;27709;52.036;5.906;2024-03-02T02:06:56;10.50;96.40
42031;DHT22;27709;52.036;5.906;2024-03-02T02:09:22;10.50;96.30
42031;DHT22;27709;52.036;5.906;2024-03-02T02:11:47;10.50;96.30
42031;DHT22;27709;52.036;5.906;2024-03-02T02:14:13;10.50;96.30
42031;DHT22;27709;52.036;5.906;2024-03-02T02:16:48;10.50;96.40
42031;DHT22;27709;52.036;5.906;2024-03-02T02:19:13;10.50;96.50
42031;DHT22;27709;52.036;5.906;2024-03-02T02:21:42;10.50;96.60
42031;DHT22;27709;52.036;5.906;2024-03-02T02:24:08;10.50;96.60
42031;DHT22;27709;52.036;5.906;2024-03-02T02:26:33;10.50;96.50
42031;DHT22;27709;52.036;5.906;2024-03-02T02:28:59;10.50;96.60
42031;DHT22;27709;52.036;5.906;2024-03-02T02:31:24;10.50;96.70
42031;DHT22;27709;52.036;5.906;2024-03-02T02:33:50;10.50;96.70
42031;DHT22;27709;52.036;5.906;2024-03-02T02:36:18;10.50;96.80
42031;DHT22;27709;52.036;5.906;2024-03-02T02:38:46;10.50;96.60
42031;DHT22;27709;52.036;5.906;2024-03-02T02:41:13;10.40;96.90
42031;DHT22;27709;52.036;5.906;2024-03-02T02:43:38;10.40;96.80
42031;DHT22;27709;52.036;5.906;2024-03-02T02:46:05;10.40;96.80
42031;DHT22;27709;52.036;5.906;2024-03-02T02:48:31;10.40;96.70
42031;DHT22;27709;52.036;5.906;2024-03-02T02:50:56;10.40;96.90
42031;DHT22;27709;52.036;5.906;2024-03-02T02:53:23;10.40;96.90
42031;DHT22;27709;52.036;5.906;2024-03-02T02:55:49;10.40;96.80
42031;DHT22;27709;52.036;5.906;2024-03-02T02:58:14;10.40;96.90
42031;DHT22;27709;52.036;5.906;2024-03-02T03:00:40;10.40;97.00
42031;DHT22;27709;52.036;5.906;2024-03-02T03:03:06;10.40;97.10
42031;DHT22;27709;52.036;5.906;2024-03-02T03:05:31;10.40;96.90
42031;DHT22;27709;52.036;5.906;2024-03-02T03:07:57;10.30;96.90
42031;DHT22;27709;52.036;5.906;2024-03-02T03:10:22;10.30;97.10
42031;DHT22;27709;52.036;5.906;2024-03-02T03:12:51;10.40;97.10
42031;DHT22;27709;52.036;5.906;2024-03-02T03:15:17;10.40;97.10
42031;DHT22;27709;52.036;5.906;2024-03-02T03:17:42;10.30;96.90
42031;DHT22;27709;52.036;5.906;2024-03-02T03:20:08;10.30;97.20
42031;DHT22;27709;52.036;5.906;2024-03-02T03:22:40;10.30;97.10
42031;DHT22;27709;52.036;5.906;2024-03-02T03:25:06;10.20;97.10
42031;DHT22;27709;52.036;5.906;2024-03-02T03:27:35;10.20;97.10
42031;DHT22;27709;52.036;5.906;2024-03-02T03:30:01;10.20;97.40
42031;DHT22;27709;52.036;5.906;2024-03-02T03:32:26;10.20;97.30
42031;DHT22;27709;52.036;5.906;2024-03-02T03:34:52;10.20;97.40
42031;DHT22;27709;52.036;5.906;2024-03-02T03:37:18;10.10;97.50
42031;DHT22;27709;52.036;5.906;2024-03-02T03:39:43;10.10;97.60
42031;DHT22;27709;52.036;5.906;2024-03-02T03:42:09;10.10;97.50
42031;DHT22;27709;52.036;5.906;2024-03-02T03:44:35;10.10;97.70
42031;DHT22;27709;52.036;5.906;2024-03-02T03:47:00;10.10;98.00
42031;DHT22;27709;52.036;5.906;2024-03-02T03:49:28;10.10;97.90
42031;DHT22;27709;52.036;5.906;2024-03-02T03:51:54;10.10;98.10
42031;DHT22;27709;52.036;5.906;2024-03-02T03:54:29;10.10;98.20
42031;DHT22;27709;52.036;5.906;2024-03-02T03:56:54;10.20;98.20
42031;DHT22;27709;52.036;5.906;2024-03-02T03:59:20;10.10;98.30
42031;DHT22;27709;52.036;5.906;2024-03-02T04:01:46;10.00;98.60
42031;DHT22;27709;52.036;5.906;2024-03-02T04:04:11;10.00;98.50
42031;DHT22;27709;52.036;5.906;2024-03-02T04:06:37;10.00;98.50
42031;DHT22;27709;52.036;5.906;2024-03-02T04:09:03;10.00;98.50
42031;DHT22;27709;52.036;5.906;2024-03-02T04:11:29;10.00;98.90
42031;DHT22;27709;52.036;5.906;2024-03-02T04:13:55;10.10;98.70
42031;DHT22;27709;52.036;5.906;2024-03-02T04:16:21;10.10;98.60
42031;DHT22;27709;52.036;5.906;2024-03-02T04:18:47;10.00;98.60
42031;DHT22;27709;52.036;5.906;2024-03-02T04:21:12;9.90;98.50
42031;DHT22;27709;52.036;5.906;2024-03-02T04:23:38;9.90;98.70
42031;DHT22;27709;52.036;5.906;2024-03-02T04:26:04;10.00;98.90
42031;DHT22;27709;52.036;5.906;2024-03-02T04:28:29;10.00;98.30
42031;DHT22;27709;52.036;5.906;2024-03-02T04:30:55;9.90;98.40
42031;DHT22;27709;52.036;5.906;2024-03-02T04:33:20;9.90;98.50
42031;DHT22;27709;52.036;5.906;2024-03-02T04:35:46;9.90;98.30
42031;DHT22;27709;52.036;5.906;2024-03-02T04:38:12;9.80;98.30
42031;DHT22;27709;52.036;5.906;2024-03-02T04:40:37;9.90;98.40
42031;DHT22;27709;52.036;5.906;2024-03-02T04:43:03;9.80;98.60
42031;DHT22;27709;52.036;5.906;2024-03-02T04:45:29;9.80;98.50
42031;DHT22;27709;52.036;5.906;2024-03-02T04:47:57;9.80;98.50
42031;DHT22;27709;52.036;5.906;2024-03-02T04:50:22;9.80;98.60
42031;DHT22;27709;52.036;5.906;2024-03-02T04:52:48;9.70;98.40
42031;DHT22;27709;52.036;5.906;2024-03-02T04:55:14;9.70;98.50
42031;DHT22;27709;52.036;5.906;2024-03-02T04:57:55;9.60;98.60
42031;DHT22;27709;52.036;5.906;2024-03-02T05:00:21;9.60;98.80
42031;DHT22;27709;52.036;5.906;2024-03-02T05:02:48;9.60;98.90
42031;DHT22;27709;52.036;5.906;2024-03-02T05:05:14;9.50;98.90
42031;DHT22;27709;52.036;5.906;2024-03-02T05:07:43;9.50;99.00
42031;DHT22;27709;52.036;5.906;2024-03-02T05:10:10;9.40;99.20
42031;DHT22;27709;52.036;5.906;2024-03-02T05:12:37;9.40;99.20
42031;DHT22;27709;52.036;5.906;2024-03-02T05:15:12;9.30;99.20
42031;DHT22;27709;52.036;5.906;2024-03-02T05:17:39;9.30;99.40
42031;DHT22;27709;52.036;5.906;2024-03-02T05:20:06;9.30;99.40
42031;DHT22;27709;52.036;5.906;2024-03-02T05:22:33;9.30;99.40
42031;DHT22;27709;52.036;5.906;2024-03-02T05:24:59;9.20;99.50
42031;DHT22;27709;52.036;5.906;2024-03-02T05:27:29;9.20;99.50
42031;DHT22;27709;52.036;5.906;2024-03-02T05:29:54;9.20;99.50
42031;DHT22;27709;52.036;5.906;2024-03-02T05:32:20;9.20;99.60
42031;DHT22;27709;52.036;5.906;2024-03-02T05:34:45;9.20;99.70
42031;DHT22;27709;52.036;5.906;2024-03-02T05:37:11;9.20;99.70
42031;DHT22;27709;52.036;5.906;2024-03-02T05:39:37;9.20;99.60
42031;DHT22;27709;52.036;5.906;2024-03-02T05:42:02;9.20;99.60
42031;DHT22;27709;52.036;5.906;2024-03-02T05:44:28;9.20;99.70
42031;DHT22;27709;52.036;5.906;2024-03-02T05:46:54;9.20;99.70
42031;DHT22;27709;52.036;5.906;2024-03-02T05:49:20;9.20;99.90
42031;DHT22;27709;52.036;5.906;2024-03-02T05:51:45;9.10;99.40
42031;DHT22;27709;52.036;5.906;2024-03-02T05:54:11;9.10;99.50
42031;DHT22;27709;52.036;5.906;2024-03-02T05:56:37;9.00;99.50
42031;DHT22;27709;52.036;5.906;2024-03-02T05:59:02;9.00;99.60
42031;DHT22;27709;52.036;5.906;2024-03-02T06:01:48;9.00;99.80
42031;DHT22;27709;52.036;5.906;2024-03-02T06:04:16;8.90;99.50
42031;DHT22;27709;52.036;5.906;2024-03-02T06:06:41;8.90;99.90
42031;DHT22;27709;52.036;5.906;2024-03-02T06:09:08;8.90;99.80
42031;DHT22;27709;52.036;5.906;2024-03-02T06:11:37;8.90;99.90
42031;DHT22;27709;52.036;5.906;2024-03-02T06:14:04;8.90;99.80
42031;DHT22;27709;52.036;5.906;2024-03-02T06:16:32;8.90;99.40
42031;DHT22;27709;52.036;5.906;2024-03-02T06:18:58;8.90;99.50
42031;DHT22;27709;52.036;5.906;2024-03-02T06:21:24;8.90;99.70
42031;DHT22;27709;52.036;5.906;2024-03-02T06:23:50;8.90;99.80
42031;DHT22;27709;52.036;5.906;2024-03-02T06:26:16;8.80;99.80
42031;DHT22;27709;52.036;5.906;2024-03-02T06:28:42;8.80;99.90
42031;DHT22;27709;52.036;5.906;2024-03-02T06:31:08;8.80;99.90
42031;DHT22;27709;52.036;5.906;2024-03-02T06:33:34;8.80;99.90
42031;DHT22;27709;52.036;5.906;2024-03-02T06:36:00;8.80;99.80
42031;DHT22;27709;52.036;5.906;2024-03-02T06:38:26;8.70;99.90
42031;DHT22;27709;52.036;5.906;2024-03-02T06:40:51;8.80;99.90
42031;DHT22;27709;52.036;5.906;2024-03-02T06:43:17;8.80;99.80
42031;DHT22;27709;52.036;5.906;2024-03-02T06:45:43;8.80;99.80
42031;DHT22;27709;52.036;5.906;2024-03-02T06:48:08;8.90;99.60
42031;DHT22;27709;52.036;5.906;2024-03-02T06:50:34;9.00;99.40
42031;DHT22;27709;52.036;5.906;2024-03-02T06:53:00;9.00;99.30
42031;DHT22;27709;52.036;5.906;2024-03-02T06:55:25;9.10;99.20
42031;DHT22;27709;52.036;5.906;2024-03-02T06:57:51;9.20;99.10
42031;DHT22;27709;52.036;5.906;2024-03-02T07:00:18;9.20;99.10
42031;DHT22;27709;52.036;5.906;2024-03-02T07:02:45;9.30;99.10
42031;DHT22;27709;52.036;5.906;2024-03-02T07:05:11;9.30;99.00
42031;DHT22;27709;52.036;5.906;2024-03-02T07:07:37;9.30;98.80
42031;DHT22;27709;52.036;5.906;2024-03-02T07:10:04;9.30;98.80
42031;DHT22;27709;52.036;5.906;2024-03-02T07:12:29;9.40;98.70
42031;DHT22;27709;52.036;5.906;2024-03-02T07:14:55;9.50;98.50
42031;DHT22;27709;52.036;5.906;2024-03-02T07:17:32;9.70;98.40
42031;DHT22;27709;52.036;5.906;2024-03-02T07:19:58;9.80;98.00
42031;DHT22;27709;52.036;5.906;2024-03-02T07:22:24;9.70;98.00
42031;DHT22;27709;52.036;5.906;2024-03-02T07:24:50;9.70;98.00
42031;DHT22;27709;52.036;5.906;2024-03-02T07:27:16;9.70;97.80
42031;DHT22;27709;52.036;5.906;2024-03-02T07:29:42;9.70;97.80
42031;DHT22;27709;52.036;5.906;2024-03-02T07:32:09;9.80;97.90
42031;DHT22;27709;52.036;5.906;2024-03-02T07:34:35;9.80;97.80
42031;DHT22;27709;52.036;5.906;2024-03-02T07:37:01;9.80;97.70
42031;DHT22;27709;52.036;5.906;2024-03-02T07:39:27;9.60;97.80
42031;DHT22;27709;52.036;5.906;2024-03-02T07:41:53;9.70;98.00
42031;DHT22;27709;52.036;5.906;2024-03-02T07:44:19;9.70;98.00
42031;DHT22;27709;52.036;5.906;2024-03-02T07:46:45;9.80;97.80
42031;DHT22;27709;52.036;5.906;2024-03-02T07:49:15;10.10;97.90
42031;DHT22;27709;52.036;5.906;2024-03-02T07:51:41;10.90;96.90
42031;DHT22;27709;52.036;5.906;2024-03-02T07:54:07;11.80;95.40
42031;DHT22;27709;52.036;5.906;2024-03-02T07:56:34;12.20;94.60
42031;DHT22;27709;52.036;5.906;2024-03-02T07:59:01;12.10;94.40
42031;DHT22;27709;52.036;5.906;2024-03-02T08:01:31;11.70;94.30
42031;DHT22;27709;52.036;5.906;2024-03-02T08:04:00;11.40;94.70
42031;DHT22;27709;52.036;5.906;2024-03-02T08:06:27;11.40;95.10
42031;DHT22;27709;52.036;5.906;2024-03-02T08:09:02;11.70;94.70
42031;DHT22;27709;52.036;5.906;2024-03-02T08:11:33;12.60;93.50
42031;DHT22;27709;52.036;5.906;2024-03-02T08:13:58;12.90;92.70
42031;DHT22;27709;52.036;5.906;2024-03-02T08:16:24;13.60;92.40
42031;DHT22;27709;52.036;5.906;2024-03-02T08:18:51;14.90;90.50
42031;DHT22;27709;52.036;5.906;2024-03-02T08:21:17;15.80;89.00
42031;DHT22;27709;52.036;5.906;2024-03-02T08:23:43;16.60;87.00
42031;DHT22;27709;52.036;5.906;2024-03-02T08:26:09;17.40;85.30
42031;DHT22;27709;52.036;5.906;2024-03-02T08:28:35;17.40;83.00
42031;DHT22;27709;52.036;5.906;2024-03-02T08:31:06;17.70;82.60
42031;DHT22;27709;52.036;5.906;2024-03-02T08:33:31;17.90;81.00
42031;DHT22;27709;52.036;5.906;2024-03-02T08:35:57;17.90;81.00
42031;DHT22;27709;52.036;5.906;2024-03-02T08:38:23;18.10;81.40
42031;DHT22;27709;52.036;5.906;2024-03-02T08:40:49;18.40;79.50
42031;DHT22;27709;52.036;5.906;2024-03-02T08:43:15;18.60;79.20
42031;DHT22;27709;52.036;5.906;2024-03-02T08:45:41;18.60;78.70
42031;DHT22;27709;52.036;5.906;2024-03-02T08:48:10;18.50;78.20
42031;DHT22;27709;52.036;5.906;2024-03-02T08:50:35;18.70;78.00
42031;DHT22;27709;52.036;5.906;2024-03-02T08:53:02;18.60;75.20
42031;DHT22;27709;52.036;5.906;2024-03-02T08:55:27;17.90;76.20
42031;DHT22;27709;52.036;5.906;2024-03-02T08:57:53;17.30;78.50
42031;DHT22;27709;52.036;5.906;2024-03-02T09:00:19;17.50;80.00
42031;DHT22;27709;52.036;5.906;2024-03-02T09:02:45;17.90;76.90
42031;DHT22;27709;52.036;5.906;2024-03-02T09:05:11;17.90;76.00
42031;DHT22;27709;52.036;5.906;2024-03-02T09:07:37;17.80;76.90
42031;DHT22;27709;52.036;5.906;2024-03-02T09:10:04;17.60;77.10
42031;DHT22;27709;52.036;5.906;2024-03-02T09:12:30;17.30;78.10
42031;DHT22;27709;52.036;5.906;2024-03-02T09:14:57;17.40;79.60
42031;DHT22;27709;52.036;5.906;2024-03-02T09:17:23;17.50;78.30
42031;DHT22;27709;52.036;5.906;2024-03-02T09:19:49;17.40;78.40
42031;DHT22;27709;52.036;5.906;2024-03-02T09:22:18;17.80;79.10
42031;DHT22;27709;52.036;5.906;2024-03-02T09:24:44;18.20;76.20
42031;DHT22;27709;52.036;5.906;2024-03-02T09:27:09;18.20;75.70
42031;DHT22;27709;52.036;5.906;2024-03-02T09:29:35;17.90;75.70
42031;DHT22;27709;52.036;5.906;2024-03-02T09:32:00;17.70;76.50
42031;DHT22;27709;52.036;5.906;2024-03-02T09:34:26;17.50;77.90
42031;DHT22;27709;52.036;5.906;2024-03-02T09:36:51;17.40;77.80
42031;DHT22;27709;52.036;5.906;2024-03-02T09:39:17;17.30;77.50
42031;DHT22;27709;52.036;5.906;2024-03-02T09:41:43;17.20;78.50
42031;DHT22;27709;52.036;5.906;2024-03-02T09:44:09;17.20;78.20
42031;DHT22;27709;52.036;5.906;2024-03-02T09:46:35;17.30;78.50
42031;DHT22;27709;52.036;5.906;2024-03-02T09:49:02;17.50;78.20
42031;DHT22;27709;52.036;5.906;2024-03-02T09:51:28;17.60;77.80
42031;DHT22;27709;52.036;5.906;2024-03-02T09:53:55;17.60;75.90
42031;DHT22;27709;52.036;5.906;2024-03-02T09:56:21;17.40;76.30
42031;DHT22;27709;52.036;5.906;2024-03-02T09:58:47;17.40;77.20
42031;DHT22;27709;52.036;5.906;2024-03-02T10:01:13;17.40;75.90
42031;DHT22;27709;52.036;5.906;2024-03-02T10:03:38;17.00;76.10
42031;DHT22;27709;52.036;5.906;2024-03-02T10:06:24;16.70;76.70
42031;DHT22;27709;52.036;5.906;2024-03-02T10:08:50;16.80;78.40
42031;DHT22;27709;52.036;5.906;2024-03-02T10:11:33;17.00;76.10
42031;DHT22;27709;52.036;5.906;2024-03-02T10:16:35;16.80;75.20
42031;DHT22;27709;52.036;5.906;2024-03-02T10:19:22;16.70;76.00
42031;DHT22;27709;52.036;5.906;2024-03-02T10:21:49;16.90;78.10
42031;DHT22;27709;52.036;5.906;2024-03-02T10:24:15;17.30;77.90
42031;DHT22;27709;52.036;5.906;2024-03-02T10:26:41;17.50;77.80
42031;DHT22;27709;52.036;5.906;2024-03-02T10:29:09;17.90;76.30
42031;DHT22;27709;52.036;5.906;2024-03-02T10:31:40;17.90;75.80
42031;DHT22;27709;52.036;5.906;2024-03-02T10:34:07;18.00;75.10
42031;DHT22;27709;52.036;5.906;2024-03-02T10:36:37;18.20;74.20
42031;DHT22;27709;52.036;5.906;2024-03-02T10:39:03;18.10;72.20
42031;DHT22;27709;52.036;5.906;2024-03-02T10:41:33;17.90;73.50
42031;DHT22;27709;52.036;5.906;2024-03-02T10:43:59;17.70;74.10
42031;DHT22;27709;52.036;5.906;2024-03-02T10:46:31;17.60;73.70
42031;DHT22;27709;52.036;5.906;2024-03-02T10:48:57;17.20;73.80
42031;DHT22;27709;52.036;5.906;2024-03-02T10:51:28;17.10;73.80
42031;DHT22;27709;52.036;5.906;2024-03-02T10:54:00;16.80;75.20
42031;DHT22;27709;52.036;5.906;2024-03-02T10:56:30;16.70;75.20
42031;DHT22;27709;52.036;5.906;2024-03-02T10:59:03;16.40;75.60
42031;DHT22;27709;52.036;5.906;2024-03-02T11:01:31;16.20;76.20
42031;DHT22;27709;52.036;5.906;2024-03-02T11:03:57;16.20;76.10
42031;DHT22;27709;52.036;5.906;2024-03-02T11:06:23;16.10;76.90
42031;DHT22;27709;52.036;5.906;2024-03-02T11:08:52;16.10;78.20
42031;DHT22;27709;52.036;5.906;2024-03-02T11:11:28;16.20;77.20
42031;DHT22;27709;52.036;5.906;2024-03-02T11:13:57;16.20;77.80
42031;DHT22;27709;52.036;5.906;2024-03-02T11:16:27;16.20;76.70
42031;DHT22;27709;52.036;5.906;2024-03-02T11:18:55;16.00;76.90
42031;DHT22;27709;52.036;5.906;2024-03-02T11:21:21;15.80;78.40
42031;DHT22;27709;52.036;5.906;2024-03-02T11:23:48;15.90;78.20
42031;DHT22;27709;52.036;5.906;2024-03-02T11:26:20;15.70;78.20
42031;DHT22;27709;52.036;5.906;2024-03-02T11:28:47;15.50;78.30
42031;DHT22;27709;52.036;5.906;2024-03-02T11:31:12;15.30;78.20
42031;DHT22;27709;52.036;5.906;2024-03-02T11:33:38;15.20;79.20
42031;DHT22;27709;52.036;5.906;2024-03-02T11:36:07;15.20;79.70
42031;DHT22;27709;52.036;5.906;2024-03-02T11:38:39;15.30;77.20
42031;DHT22;27709;52.036;5.906;2024-03-02T11:41:08;15.10;77.40
42031;DHT22;27709;52.036;5.906;2024-03-02T11:43:37;14.80;77.80
42031;DHT22;27709;52.036;5.906;2024-03-02T11:46:05;14.80;78.60
42031;DHT22;27709;52.036;5.906;2024-03-02T11:48:32;14.90;78.80
42031;DHT22;27709;52.036;5.906;2024-03-02T11:50:59;14.90;80.30
42031;DHT22;27709;52.036;5.906;2024-03-02T11:53:28;14.90;80.10
42031;DHT22;27709;52.036;5.906;2024-03-02T11:55:58;15.10;80.40
42031;DHT22;27709;52.036;5.906;2024-03-02T11:58:24;15.10;80.00
42031;DHT22;27709;52.036;5.906;2024-03-02T12:00:52;15.10;79.40
42031;DHT22;27709;52.036;5.906;2024-03-02T12:03:18;15.10;79.80
42031;DHT22;27709;52.036;5.906;2024-03-02T12:05:49;15.30;80.70
42031;DHT22;27709;52.036;5.906;2024-03-02T12:08:21;15.40;80.50
42031;DHT22;27709;52.036;5.906;2024-03-02T12:11:12;15.40;79.00
42031;DHT22;27709;52.036;5.906;2024-03-02T12:13:41;15.30;77.80
42031;DHT22;27709;52.036;5.906;2024-03-02T12:16:07;15.20;79.60
42031;DHT22;27709;52.036;5.906;2024-03-02T12:18:33;15.20;78.60
42031;DHT22;27709;52.036;5.906;2024-03-02T12:20:58;15.20;79.50
42031;DHT22;27709;52.036;5.906;2024-03-02T12:23:24;15.40;79.40
42031;DHT22;27709;52.036;5.906;2024-03-02T12:25:50;15.50;77.60
42031;DHT22;27709;52.036;5.906;2024-03-02T12:28:16;15.60;76.90
42031;DHT22;27709;52.036;5.906;2024-03-02T12:30:42;15.60;77.50
42031;DHT22;27709;52.036;5.906;2024-03-02T12:33:08;15.50;75.80
42031;DHT22;27709;52.036;5.906;2024-03-02T12:35:36;15.40;76.70
42031;DHT22;27709;52.036;5.906;2024-03-02T12:38:01;15.40;76.00
42031;DHT22;27709;52.036;5.906;2024-03-02T12:40:27;15.40;77.20
42031;DHT22;27709;52.036;5.906;2024-03-02T12:42:52;15.40;76.40
42031;DHT22;27709;52.036;5.906;2024-03-02T12:45:18;15.30;76.60
42031;DHT22;27709;52.036;5.906;2024-03-02T12:47:50;15.20;77.00
42031;DHT22;27709;52.036;5.906;2024-03-02T12:50:18;15.20;76.20
42031;DHT22;27709;52.036;5.906;2024-03-02T12:52:51;15.20;75.30
42031;DHT22;27709;52.036;5.906;2024-03-02T12:55:17;15.20;75.10
42031;DHT22;27709;52.036;5.906;2024-03-02T12:57:44;15.00;75.10
42031;DHT22;27709;52.036;5.906;2024-03-02T13:00:09;15.00;75.20
42031;DHT22;27709;52.036;5.906;2024-03-02T13:02:40;15.20;75.80
42031;DHT22;27709;52.036;5.906;2024-03-02T13:05:07;15.40;75.60
42031;DHT22;27709;52.036;5.906;2024-03-02T13:07:41;15.50;75.70
42031;DHT22;27709;52.036;5.906;2024-03-02T13:10:07;15.80;75.90
42031;DHT22;27709;52.036;5.906;2024-03-02T13:12:35;15.80;74.30
42031;DHT22;27709;52.036;5.906;2024-03-02T13:15:02;15.80;74.30
42031;DHT22;27709;52.036;5.906;2024-03-02T13:17:29;15.90;75.60
42031;DHT22;27709;52.036;5.906;2024-03-02T13:19:59;15.80;76.90
42031;DHT22;27709;52.036;5.906;2024-03-02T13:22:26;15.60;77.50
42031;DHT22;27709;52.036;5.906;2024-03-02T13:24:52;15.50;77.70
42031;DHT22;27709;52.036;5.906;2024-03-02T13:27:20;15.50;79.40
42031;DHT22;27709;52.036;5.906;2024-03-02T13:29:46;15.50;80.30
42031;DHT22;27709;52.036;5.906;2024-03-02T13:32:15;15.50;79.80
42031;DHT22;27709;52.036;5.906;2024-03-02T13:34:41;15.50;79.80
42031;DHT22;27709;52.036;5.906;2024-03-02T13:37:07;15.40;81.10
42031;DHT22;27709;52.036;5.906;2024-03-02T13:39:33;15.30;80.50
42031;DHT22;27709;52.036;5.906;2024-03-02T13:42:06;15.40;80.80
42031;DHT22;27709;52.036;5.906;2024-03-02T13:44:33;15.20;80.90
42031;DHT22;27709;52.036;5.906;2024-03-02T13:47:00;15.10;81.70
42031;DHT22;27709;52.036;5.906;2024-03-02T13:49:26;15.20;81.10
42031;DHT22;27709;52.036;5.906;2024-03-02T13:52:00;15.20;80.70
42031;DHT22;27709;52.036;5.906;2024-03-02T13:54:28;15.30;80.30
42031;DHT22;27709;52.036;5.906;2024-03-02T13:56:54;15.40;80.00
42031;DHT22;27709;52.036;5.906;2024-03-02T13:59:20;15.50;80.10
42031;DHT22;27709;52.036;5.906;2024-03-02T14:01:45;15.40;78.90
42031;DHT22;27709;52.036;5.906;2024-03-02T14:04:11;15.30;79.00
42031;DHT22;27709;52.036;5.906;2024-03-02T14:06:38;15.20;79.80
42031;DHT22;27709;52.036;5.906;2024-03-02T14:09:03;15.20;80.40
42031;DHT22;27709;52.036;5.906;2024-03-02T14:11:29;15.30;79.30
42031;DHT22;27709;52.036;5.906;2024-03-02T14:13:54;15.10;79.10
42031;DHT22;27709;52.036;5.906;2024-03-02T14:16:20;15.00;79.20
42031;DHT22;27709;52.036;5.906;2024-03-02T14:18:46;14.90;78.90
42031;DHT22;27709;52.036;5.906;2024-03-02T14:21:12;14.80;79.00
42031;DHT22;27709;52.036;5.906;2024-03-02T14:23:37;14.70;79.00
42031;DHT22;27709;52.036;5.906;2024-03-02T14:26:03;14.70;79.20
42031;DHT22;27709;52.036;5.906;2024-03-02T14:28:28;14.80;80.00
42031;DHT22;27709;52.036;5.906;2024-03-02T14:30:54;14.90;79.70
42031;DHT22;27709;52.036;5.906;2024-03-02T14:33:20;14.90;79.40
42031;DHT22;27709;52.036;5.906;2024-03-02T14:35:46;15.10;78.80
42031;DHT22;27709;52.036;5.906;2024-03-02T14:38:12;15.10;78.60
42031;DHT22;27709;52.036;5.906;2024-03-02T14:40:38;15.20;79.00
42031;DHT22;27709;52.036;5.906;2024-03-02T14:43:04;15.20;78.30
42031;DHT22;27709;52.036;5.906;2024-03-02T14:45:29;15.30;78.20
42031;DHT22;27709;52.036;5.906;2024-03-02T14:47:56;15.20;78.20
42031;DHT22;27709;52.036;5.906;2024-03-02T14:50:27;15.30;79.40
42031;DHT22;27709;52.036;5.906;2024-03-02T14:52:53;15.30;80.20
42031;DHT22;27709;52.036;5.906;2024-03-02T14:55:19;15.40;79.30
42031;DHT22;27709;52.036;5.906;2024-03-02T14:57:44;15.50;79.40
42031;DHT22;27709;52.036;5.906;2024-03-02T15:00:10;15.40;79.20
42031;DHT22;27709;52.036;5.906;2024-03-02T15:02:37;15.30;79.30
42031;DHT22;27709;52.036;5.906;2024-03-02T15:05:03;15.30;80.10
42031;DHT22;27709;52.036;5.906;2024-03-02T15:07:31;15.40;81.00
42031;DHT22;27709;52.036;5.906;2024-03-02T15:09:57;15.50;81.30
42031;DHT22;27709;52.036;5.906;2024-03-02T15:12:22;15.60;81.10
42031;DHT22;27709;52.036;5.906;2024-03-02T15:14:48;15.40;80.70
42031;DHT22;27709;52.036;5.906;2024-03-02T15:17:14;15.30;81.00
42031;DHT22;27709;52.036;5.906;2024-03-02T15:19:44;15.20;81.10
42031;DHT22;27709;52.036;5.906;2024-03-02T15:22:12;15.00;81.00
42031;DHT22;27709;52.036;5.906;2024-03-02T15:24:38;14.90;81.60
42031;DHT22;27709;52.036;5.906;2024-03-02T15:27:05;14.90;82.40
42031;DHT22;27709;52.036;5.906;2024-03-02T15:29:33;14.90;82.90
42031;DHT22;27709;52.036;5.906;2024-03-02T15:31:59;14.80;82.50
42031;DHT22;27709;52.036;5.906;2024-03-02T15:34:25;14.80;83.80
42031;DHT22;27709;52.036;5.906;2024-03-02T15:36:51;14.60;83.50
42031;DHT22;27709;52.036;5.906;2024-03-02T15:39:17;14.50;84.00
42031;DHT22;27709;52.036;5.906;2024-03-02T15:41:44;14.50;84.60